Time;durP1;ratioP1;P1;durP2;ratioP2;P2;SDS_P1;SDS_P2;PMS_P1;PMS_P2;Temp;Humidity;BMP_temperature;BMP_pressure;BME280_temperature;BME280_humidity;BME280_pressure;Samples;Min_cycle;Max_cycle;Signal;HPM_P1;HPM_P2
2024/02/20 00:00:51;;;;;;;48.22;6.47;;;6.70;99.90;;;;;;5053017;28;20403;-65
2024/02/20 00:03:16;;;;;;;43.53;6.15;;;6.70;99.90;;;;;;5057364;28;20033;-65
2024/02/20 00:05:42;;;;;;;51.25;7.50;;;6.70;99.90;;;;;;5051773;28;20498;-64
2024/02/20 00:08:07;;;;;;;34.10;5.93;;;6.70;99.90;;;;;;5052429;28;20032;-65
2024/02/20 00:10:33;;;;;;;44.05;6.40;;;6.70;99.90;;;;;;5049037;28;20040;-65
2024/02/20 00:12:59;;;;;;;45.92;7.68;;;6.70;99.90;;;;;;5045633;28;20041;-64
2024/02/20 00:15:25;;;;;;;39.15;7.15;;;6.60;99.90;;;;;;5047110;28;20502;-64
2024/02/20 00:17:50;;;;;;;47.35;7.13;;;6.70;99.90;;;;;;5054878;28;20135;-64
2024/02/20 00:20:16;;;;;;;41.33;6.30;;;6.60;99.90;;;;;;5050417;28;20492;-63
2024/02/20 00:22:42;;;;;;;42.83;7.88;;;6.60;99.90;;;;;;5050721;28;20120;-65
2024/02/20 00:25:08;;;;;;;36.97;5.70;;;6.60;99.90;;;;;;5054591;28;20056;-65
2024/02/20 00:27:35;;;;;;;41.50;7.80;;;6.50;99.90;;;;;;5047175;28;20408;-64
2024/02/20 00:30:04;;;;;;;50.90;6.75;;;6.50;99.90;;;;;;5047881;28;20033;-65
2024/02/20 00:32:30;;;;;;;52.97;6.78;;;6.50;99.90;;;;;;5051242;28;20083;-65
2024/02/20 00:34:55;;;;;;;37.25;6.35;;;6.50;99.90;;;;;;5063149;28;20048;-65
2024/02/20 00:37:21;;;;;;;41.78;7.03;;;6.50;99.90;;;;;;5051404;28;20041;-65
2024/02/20 00:39:47;;;;;;;42.25;7.15;;;6.50;99.90;;;;;;5052673;28;20033;-62
2024/02/20 00:42:13;;;;;;;41.08;7.07;;;6.50;99.90;;;;;;5046328;28;20032;-65
2024/02/20 00:44:40;;;;;;;43.15;6.32;;;6.60;99.90;;;;;;5051326;28;20041;-64
2024/02/20 00:47:09;;;;;;;38.50;5.60;;;6.60;99.90;;;;;;5046546;28;20060;-64
2024/02/20 00:49:38;;;;;;;49.67;6.55;;;6.50;99.90;;;;;;5049623;28;20041;-65
2024/02/20 00:52:04;;;;;;;45.05;6.55;;;6.50;99.90;;;;;;5049920;28;20044;-65
2024/02/20 00:54:29;;;;;;;49.22;6.78;;;6.60;99.90;;;;;;5059964;28;20033;-64
2024/02/20 00:56:55;;;;;;;41.13;6.15;;;6.60;99.90;;;;;;5051835;28;20441;-63
2024/02/20 00:59:21;;;;;;;42.00;6.32;;;6.50;99.90;;;;;;5064814;28;20190;-65
2024/02/20 01:01:47;;;;;;;42.60;6.32;;;6.60;99.90;;;;;;5053720;28;20100;-65
2024/02/20 01:04:13;;;;;;;42.47;6.60;;;6.60;99.90;;;;;;5051878;28;20029;-65
2024/02/20 01:06:39;;;;;;;41.28;6.72;;;6.60;99.90;;;;;;5051554;28;20091;-66
2024/02/20 01:09:05;;;;;;;43.85;6.03;;;6.60;99.90;;;;;;5051861;28;20033;-65
2024/02/20 01:11:31;;;;;;;39.03;6.35;;;6.60;99.90;;;;;;5046775;28;20033;-65
2024/02/20 01:13:56;;;;;;;46.90;5.80;;;6.60;99.90;;;;;;5048410;28;20408;-65
2024/02/20 01:16:22;;;;;;;53.85;5.88;;;6.60;99.90;;;;;;5048221;28;20516;-63
2024/02/20 01:18:48;;;;;;;39.83;6.15;;;6.60;99.90;;;;;;5051244;28;20415;-62
2024/02/20 01:21:13;;;;;;;44.13;6.07;;;5.90;99.90;;;;;;5045767;28;20029;-65
2024/02/20 01:23:39;;;;;;;40.30;6.03;;;6.60;99.90;;;;;;5049049;28;20504;-64
2024/02/20 01:26:04;;;;;;;43.05;6.07;;;6.60;99.90;;;;;;5051235;28;20041;-64
2024/02/20 01:28:30;;;;;;;39.08;5.60;;;6.60;99.90;;;;;;5051001;28;20501;-63
2024/02/20 01:30:55;;;;;;;36.97;5.95;;;6.60;99.90;;;;;;5044706;28;20037;-63
2024/02/20 01:33:21;;;;;;;43.58;5.85;;;6.60;99.90;;;;;;5045842;28;20043;-64
2024/02/20 01:35:46;;;;;;;42.30;6.82;;;6.60;99.90;;;;;;5048244;28;20036;-64
2024/02/20 01:38:12;;;;;;;35.15;4.88;;;6.60;99.90;;;;;;5051253;28;20036;-64
2024/02/20 01:40:38;;;;;;;35.40;5.60;;;6.60;99.90;;;;;;5056290;28;20037;-63
2024/02/20 01:43:05;;;;;;;44.65;5.75;;;6.70;99.90;;;;;;5045769;28;20037;-64
2024/02/20 01:45:31;;;;;;;39.53;6.13;;;6.70;99.90;;;;;;5047599;28;20048;-64
2024/02/20 01:48:00;;;;;;;44.83;6.13;;;6.70;99.90;;;;;;5045298;28;20381;-64
2024/02/20 01:50:28;;;;;;;38.30;5.10;;;6.70;99.90;;;;;;5046230;28;20607;-64
2024/02/20 01:52:53;;;;;;;49.58;5.97;;;6.70;99.90;;;;;;5047320;28;20037;-64
2024/02/20 01:55:22;;;;;;;32.03;5.22;;;6.70;99.90;;;;;;5051256;28;20079;-64
2024/02/20 01:57:48;;;;;;;41.85;5.65;;;6.70;99.90;;;;;;5043102;28;20404;-63
2024/02/20 02:00:14;;;;;;;34.88;5.18;;;6.70;99.90;;;;;;5045889;28;20045;-64
2024/02/20 02:02:41;;;;;;;28.10;5.45;;;6.70;99.90;;;;;;5049081;28;20385;-64
2024/02/20 02:05:07;;;;;;;36.83;6.38;;;6.70;99.90;;;;;;5051030;28;20041;-64
2024/02/20 02:07:33;;;;;;;33.50;5.07;;;6.70;99.90;;;;;;5043338;28;20402;-63
2024/02/20 02:09:58;;;;;;;36.35;5.10;;;6.70;99.90;;;;;;5050737;28;20040;-63
2024/02/20 02:12:24;;;;;;;31.45;4.93;;;6.70;99.90;;;;;;5049293;28;20036;-64
2024/02/20 02:14:50;;;;;;;32.38;5.70;;;6.70;99.90;;;;;;5049885;28;20124;-64
2024/02/20 02:18:05;;;;;;;33.83;4.72;;;6.70;99.90;;;;;;5046191;28;20038;-64
2024/02/20 02:20:31;;;;;;;36.92;5.50;;;6.70;99.90;;;;;;5044344;28;20044;-63
2024/02/20 02:22:56;;;;;;;27.38;4.80;;;6.70;99.90;;;;;;5044646;28;20033;-63
2024/02/20 02:25:24;;;;;;;32.95;4.60;;;6.70;99.90;;;;;;5047907;28;20044;-64
2024/02/20 02:27:49;;;;;;;36.88;5.50;;;6.70;99.90;;;;;;5044987;28;20060;-64
2024/02/20 02:30:15;;;;;;;41.72;6.38;;;6.70;99.90;;;;;;5040555;28;20508;-64
2024/02/20 02:32:41;;;;;;;35.20;5.40;;;6.60;99.90;;;;;;5046784;28;20396;-64
2024/02/20 02:35:10;;;;;;;43.67;5.60;;;6.70;99.90;;;;;;5045370;28;20067;-64
2024/02/20 02:37:36;;;;;;;32.95;5.53;;;6.60;99.90;;;;;;5049751;28;20035;-64
2024/02/20 02:40:04;;;;;;;28.73;4.22;;;6.60;99.90;;;;;;5043021;28;20400;-64
2024/02/20 02:42:30;;;;;;;32.88;5.53;;;6.70;99.90;;;;;;5043543;28;20041;-63
2024/02/20 02:44:56;;;;;;;31.35;5.00;;;6.60;99.90;;;;;;5049651;28;20103;-64
2024/02/20 02:47:21;;;;;;;37.53;5.00;;;6.60;99.90;;;;;;5048680;28;20424;-63
2024/02/20 02:49:47;;;;;;;34.22;5.63;;;6.60;99.90;;;;;;5049440;28;20064;-64
2024/02/20 02:52:13;;;;;;;41.25;5.53;;;6.50;99.90;;;;;;5042069;28;20488;-64
2024/02/20 02:54:38;;;;;;;27.05;4.80;;;6.60;99.90;;;;;;5045588;28;20037;-64
2024/02/20 02:57:04;;;;;;;31.80;5.32;;;6.50;99.90;;;;;;5039232;28;20405;-64
2024/02/20 02:59:29;;;;;;;38.17;5.03;;;6.50;99.90;;;;;;5044107;28;20067;-63
2024/02/20 03:01:55;;;;;;;40.00;5.00;;;6.40;99.90;;;;;;5041641;28;20044;-63
2024/02/20 03:04:21;;;;;;;34.08;5.30;;;6.40;99.90;;;;;;5055833;28;20044;-63
2024/02/20 03:06:47;;;;;;;35.80;4.65;;;6.40;99.90;;;;;;5045983;28;20580;-63
2024/02/20 03:09:13;;;;;;;29.65;4.90;;;6.40;99.90;;;;;;5043907;28;20043;-64
2024/02/20 03:11:39;;;;;;;25.95;4.75;;;6.30;99.90;;;;;;5043649;28;20279;-64
2024/02/20 03:14:06;;;;;;;37.28;5.50;;;6.30;99.90;;;;;;5046766;28;20075;-63
2024/02/20 03:16:32;;;;;;;28.77;4.38;;;6.30;99.90;;;;;;5048346;28;20045;-64
2024/02/20 03:18:57;;;;;;;34.97;5.13;;;6.30;99.90;;;;;;5049935;28;20131;-64
2024/02/20 03:21:24;;;;;;;30.45;5.13;;;6.30;99.90;;;;;;5049641;28;20036;-63
2024/02/20 03:23:50;;;;;;;31.63;5.18;;;6.30;99.90;;;;;;5047861;28;20088;-65
2024/02/20 03:26:15;;;;;;;36.47;5.10;;;6.20;99.90;;;;;;5043873;28;20091;-62
2024/02/20 03:28:43;;;;;;;34.15;4.43;;;6.20;99.90;;;;;;5049548;28;20052;-62
2024/02/20 03:31:09;;;;;;;34.65;4.95;;;6.20;99.90;;;;;;5048114;28;20048;-63
2024/02/20 03:33:34;;;;;;;35.95;5.15;;;6.10;99.90;;;;;;5042629;28;20443;-63
2024/02/20 03:36:02;;;;;;;38.30;5.25;;;6.20;99.90;;;;;;5050059;28;20041;-65
2024/02/20 03:38:28;;;;;;;33.10;5.60;;;6.10;99.90;;;;;;5051672;28;20475;-68
2024/02/20 03:40:53;;;;;;;38.47;5.03;;;6.10;99.90;;;;;;5050276;28;20037;-62
2024/02/20 03:43:19;;;;;;;38.17;5.60;;;6.10;99.90;;;;;;5054165;28;20127;-62
2024/02/20 03:45:45;;;;;;;33.50;5.22;;;6.00;99.90;;;;;;5055978;28;20385;-62
2024/02/20 03:48:10;;;;;;;30.52;5.10;;;6.00;99.90;;;;;;5053649;28;20155;-65
2024/02/20 03:50:36;;;;;;;32.78;5.47;;;6.00;99.90;;;;;;5053882;28;20033;-63
2024/02/20 03:53:02;;;;;;;35.53;4.82;;;6.00;99.90;;;;;;5050532;28;20041;-62
2024/02/20 03:55:28;;;;;;;34.42;4.95;;;6.10;99.90;;;;;;5049396;28;20725;-63
2024/02/20 03:57:55;;;;;;;39.97;4.75;;;6.00;99.90;;;;;;5045561;28;20048;-62
2024/02/20 04:00:24;;;;;;;31.92;4.68;;;5.20;99.90;;;;;;5056439;28;20037;-68
2024/02/20 04:02:50;;;;;;;41.92;5.47;;;6.00;99.90;;;;;;5049385;28;20048;-62
2024/02/20 04:05:16;;;;;;;30.05;5.25;;;6.00;99.90;;;;;;5053728;28;20400;-62
2024/02/20 04:07:44;;;;;;;34.58;5.18;;;6.00;99.90;;;;;;5052775;28;20084;-65
2024/02/20 04:10:11;;;;;;;33.80;4.90;;;6.00;99.90;;;;;;5049557;28;20412;-65
2024/02/20 04:12:38;;;;;;;40.72;5.32;;;6.00;99.90;;;;;;5053066;28;20049;-63
2024/02/20 04:15:08;;;;;;;31.85;4.05;;;6.00;99.90;;;;;;5053333;28;20381;-62
2024/02/20 04:17:35;;;;;;;30.90;4.70;;;6.00;99.90;;;;;;5052888;28;20438;-62
2024/02/20 04:20:04;;;;;;;30.95;5.22;;;6.00;99.90;;;;;;5051883;28;20484;-62
2024/02/20 04:22:32;;;;;;;31.17;5.18;;;6.00;99.90;;;;;;5052481;28;20041;-63
2024/02/20 04:24:58;;;;;;;27.40;4.47;;;6.00;99.90;;;;;;5051819;28;20047;-63
2024/02/20 04:27:25;;;;;;;35.75;5.05;;;6.00;99.90;;;;;;5047241;28;20037;-66
2024/02/20 04:29:50;;;;;;;36.05;4.75;;;6.00;99.90;;;;;;5050129;28;20045;-62
2024/02/20 04:32:16;;;;;;;25.42;4.32;;;6.00;99.90;;;;;;5052155;28;20377;-62
2024/02/20 04:34:41;;;;;;;39.50;4.75;;;6.10;99.90;;;;;;5061502;28;20123;-65
2024/02/20 04:37:07;;;;;;;33.72;4.82;;;6.10;99.90;;;;;;5052259;28;20041;-62
2024/02/20 04:39:33;;;;;;;30.60;4.72;;;6.10;99.90;;;;;;5052849;28;20040;-62
2024/02/20 04:41:58;;;;;;;32.80;5.32;;;6.10;99.90;;;;;;5039030;28;20052;-62
2024/02/20 04:44:24;;;;;;;38.60;5.80;;;6.10;99.90;;;;;;5050603;28;20381;-65
2024/02/20 04:46:50;;;;;;;30.75;4.90;;;6.10;99.90;;;;;;5050973;28;20144;-68
2024/02/20 04:49:16;;;;;;;33.67;4.82;;;6.00;99.90;;;;;;5051758;28;20077;-62
2024/02/20 04:51:42;;;;;;;44.08;5.40;;;6.10;99.90;;;;;;5052329;28;20091;-64
2024/02/20 04:54:08;;;;;;;33.97;4.22;;;6.00;99.90;;;;;;5046952;28;20041;-68
2024/02/20 04:56:34;;;;;;;24.83;5.68;;;6.00;99.90;;;;;;5052166;28;20037;-62
2024/02/20 04:58:59;;;;;;;38.97;5.65;;;6.00;99.90;;;;;;5051029;28;20036;-62
2024/02/20 05:01:25;;;;;;;33.22;4.80;;;6.10;99.90;;;;;;5051591;28;20037;-62
2024/02/20 05:03:51;;;;;;;31.58;5.15;;;6.10;99.90;;;;;;5052014;28;20049;-62
2024/02/20 05:06:17;;;;;;;30.85;4.93;;;6.10;99.90;;;;;;5052293;28;20508;-64
2024/02/20 05:08:42;;;;;;;24.95;4.68;;;6.10;99.90;;;;;;5052211;28;20037;-68
2024/02/20 05:11:08;;;;;;;34.13;5.07;;;6.10;99.90;;;;;;5050373;28;20553;-62
2024/02/20 05:13:34;;;;;;;33.25;5.38;;;6.10;99.90;;;;;;5052316;28;20683;-62
2024/02/20 05:16:01;;;;;;;37.72;5.05;;;6.20;99.90;;;;;;5048682;28;20044;-62
2024/02/20 05:18:27;;;;;;;32.70;4.72;;;6.20;99.90;;;;;;5047492;28;20032;-62
2024/02/20 05:20:53;;;;;;;35.30;5.43;;;6.20;99.90;;;;;;5052430;28;20089;-68
2024/02/20 05:23:18;;;;;;;34.95;4.82;;;6.20;99.90;;;;;;5052010;28;20642;-62
2024/02/20 05:25:44;;;;;;;30.23;4.90;;;6.20;99.90;;;;;;5051966;28;20036;-62
2024/02/20 05:28:09;;;;;;;32.55;5.72;;;6.20;99.90;;;;;;5051553;28;20481;-63
2024/02/20 05:30:36;;;;;;;29.38;4.60;;;6.20;99.90;;;;;;5051867;28;20033;-67
2024/02/20 05:33:02;;;;;;;30.23;5.43;;;6.30;99.90;;;;;;5045609;28;20112;-65
2024/02/20 05:35:28;;;;;;;32.03;5.25;;;6.30;99.90;;;;;;5051453;28;20125;-63
2024/02/20 05:37:53;;;;;;;33.45;5.22;;;6.30;99.90;;;;;;5051322;28;20473;-65
2024/02/20 05:40:19;;;;;;;26.10;4.45;;;6.30;99.90;;;;;;5047731;28;20558;-68
2024/02/20 05:42:45;;;;;;;37.85;6.05;;;6.30;99.90;;;;;;5051921;28;20069;-62
2024/02/20 05:45:11;;;;;;;29.90;5.28;;;6.30;99.90;;;;;;5051471;28;20037;-62
2024/02/20 05:47:37;;;;;;;29.63;4.63;;;6.30;99.90;;;;;;5051003;28;20039;-62
2024/02/20 05:50:03;;;;;;;30.05;4.70;;;6.30;99.90;;;;;;5048416;28;20037;-62
2024/02/20 05:52:30;;;;;;;28.05;6.38;;;6.30;99.90;;;;;;5048278;28;20072;-62
2024/02/20 05:54:55;;;;;;;31.13;5.00;;;6.30;99.90;;;;;;5058982;28;20045;-62
2024/02/20 05:57:21;;;;;;;27.92;5.13;;;6.30;99.90;;;;;;5050523;28;20110;-62
2024/02/20 05:59:46;;;;;;;35.05;4.90;;;6.30;99.90;;;;;;5051176;28;20029;-63
2024/02/20 06:02:12;;;;;;;32.15;5.38;;;6.30;99.90;;;;;;5050798;28;20430;-65
2024/02/20 06:04:39;;;;;;;29.80;5.22;;;6.30;99.90;;;;;;5050911;28;20025;-68
2024/02/20 06:07:04;;;;;;;25.23;4.82;;;6.30;99.90;;;;;;5050721;28;20044;-65
2024/02/20 06:09:30;;;;;;;27.27;4.20;;;6.30;99.90;;;;;;5051297;28;20037;-68
2024/02/20 06:11:55;;;;;;;32.22;4.63;;;6.30;99.90;;;;;;5062978;28;20517;-62
2024/02/20 06:14:21;;;;;;;27.92;4.25;;;6.30;99.90;;;;;;5051999;28;20040;-62
2024/02/20 06:16:47;;;;;;;33.92;5.50;;;6.30;99.90;;;;;;5050372;28;20040;-64
2024/02/20 06:19:13;;;;;;;29.45;5.25;;;6.30;99.90;;;;;;5047850;28;20044;-65
2024/02/20 06:21:40;;;;;;;41.78;5.65;;;6.30;99.90;;;;;;5050055;28;20056;-65
2024/02/20 06:24:06;;;;;;;43.92;4.68;;;6.20;99.90;;;;;;5051981;28;20123;-62
2024/02/20 06:26:34;;;;;;;26.88;4.20;;;6.30;99.90;;;;;;5054854;28;20128;-63
2024/02/20 06:29:00;;;;;;;29.35;4.82;;;6.30;99.90;;;;;;5061408;28;20068;-62
2024/02/20 06:31:25;;;;;;;33.55;5.28;;;6.30;99.90;;;;;;5050468;28;20037;-62
2024/02/20 06:33:51;;;;;;;37.05;5.65;;;6.30;99.90;;;;;;5050754;28;20047;-64
2024/02/20 06:36:17;;;;;;;36.72;5.72;;;6.20;99.90;;;;;;5043618;28;20112;-66
2024/02/20 06:38:42;;;;;;;36.88;5.35;;;6.30;99.90;;;;;;5049353;28;20527;-62
2024/02/20 06:41:08;;;;;;;44.47;5.55;;;6.30;99.90;;;;;;5047931;28;21114;-62
2024/02/20 06:43:37;;;;;;;32.00;4.32;;;6.30;99.90;;;;;;5040706;28;20186;-62
2024/02/20 06:46:03;;;;;;;37.30;6.28;;;6.30;99.90;;;;;;5049798;28;20048;-62
2024/02/20 06:48:28;;;;;;;28.15;5.03;;;6.30;99.90;;;;;;5049356;28;20044;-62
2024/02/20 06:50:54;;;;;;;34.00;6.05;;;6.30;99.90;;;;;;5049365;28;20592;-62
2024/02/20 06:53:20;;;;;;;32.50;5.85;;;6.40;99.90;;;;;;5043865;28;20037;-67
2024/02/20 06:55:46;;;;;;;34.60;5.80;;;6.40;99.90;;;;;;5045837;28;20033;-67
2024/02/20 06:58:11;;;;;;;30.15;6.05;;;6.40;99.90;;;;;;5049356;28;20044;-66
2024/02/20 07:00:37;;;;;;;32.83;5.43;;;6.40;99.90;;;;;;5046375;28;20657;-63
2024/02/20 07:03:04;;;;;;;37.67;5.85;;;6.40;99.90;;;;;;5046762;28;20037;-65
2024/02/20 07:05:30;;;;;;;30.85;5.82;;;6.40;99.90;;;;;;5048580;28;20041;-65
2024/02/20 07:07:56;;;;;;;40.40;6.15;;;6.50;99.90;;;;;;5049354;28;20044;-66
2024/02/20 07:10:22;;;;;;;36.83;5.90;;;6.50;99.90;;;;;;5049065;28;20088;-62
2024/02/20 07:12:47;;;;;;;53.55;8.65;;;6.50;99.90;;;;;;5048505;28;21233;-62
2024/02/20 07:15:13;;;;;;;33.38;6.22;;;6.50;99.90;;;;;;5041172;28;20041;-66
2024/02/20 07:17:39;;;;;;;32.60;6.45;;;6.60;99.90;;;;;;5045178;28;20159;-62
2024/02/20 07:20:06;;;;;;;28.33;5.68;;;6.60;99.90;;;;;;5051509;28;20400;-62
2024/02/20 07:22:32;;;;;;;41.63;6.32;;;6.60;99.90;;;;;;5056994;28;20079;-62
2024/02/20 07:25:01;;;;;;;36.40;6.40;;;6.60;99.90;;;;;;5049895;28;20400;-62
2024/02/20 07:27:27;;;;;;;38.38;6.55;;;6.60;99.90;;;;;;5049541;28;20068;-62
2024/02/20 07:29:53;;;;;;;47.45;6.90;;;6.60;99.90;;;;;;5049738;28;20122;-65
2024/02/20 07:32:19;;;;;;;35.63;6.60;;;6.70;99.90;;;;;;5044961;28;20045;-62
2024/02/20 07:34:50;;;;;;;42.67;7.10;;;6.70;99.90;;;;;;5050081;28;20832;-62
2024/02/20 07:37:16;;;;;;;44.17;6.07;;;6.70;99.90;;;;;;5049972;28;20404;-63
2024/02/20 07:39:41;;;;;;;37.17;6.55;;;6.80;99.90;;;;;;5047459;28;20044;-63
2024/02/20 07:42:08;;;;;;;37.95;7.38;;;6.80;99.90;;;;;;5043415;28;20033;-68
2024/02/20 07:44:34;;;;;;;43.35;6.57;;;6.80;99.90;;;;;;5051352;28;20036;-67
2024/02/20 07:47:00;;;;;;;31.55;5.60;;;6.80;99.90;;;;;;5059230;28;20102;-62
2024/02/20 07:49:26;;;;;;;37.63;6.95;;;6.90;99.90;;;;;;5049725;28;20040;-63
2024/02/20 07:51:52;;;;;;;42.28;6.60;;;6.90;99.90;;;;;;5049496;28;20037;-62
2024/02/20 07:54:17;;;;;;;42.70;6.45;;;6.90;99.90;;;;;;5049386;28;20489;-65
2024/02/20 07:56:43;;;;;;;41.33;6.78;;;7.00;99.90;;;;;;5047589;28;20095;-62
2024/02/20 07:59:10;;;;;;;48.00;6.75;;;7.00;99.90;;;;;;5049103;28;20579;-62
2024/02/20 08:01:36;;;;;;;41.38;6.30;;;7.00;99.90;;;;;;5048247;28;20032;-63
2024/02/20 08:04:02;;;;;;;41.22;6.28;;;7.00;99.90;;;;;;5049755;28;20030;-63
2024/02/20 08:06:28;;;;;;;36.17;5.78;;;7.10;99.90;;;;;;5048356;28;20428;-68
2024/02/20 08:08:53;;;;;;;37.47;6.75;;;7.10;99.90;;;;;;5049181;28;20041;-62
2024/02/20 08:11:19;;;;;;;39.25;7.00;;;7.10;99.90;;;;;;5044377;28;20034;-63
2024/02/20 08:13:46;;;;;;;35.78;6.38;;;7.20;99.90;;;;;;5048337;28;20508;-63
2024/02/20 08:16:12;;;;;;;44.55;7.28;;;7.20;99.90;;;;;;5044256;28;20549;-62
2024/02/20 08:18:41;;;;;;;36.85;6.57;;;7.20;99.90;;;;;;5048428;28;20033;-68
2024/02/20 08:21:07;;;;;;;42.40;7.45;;;7.20;99.90;;;;;;5049269;28;20116;-63
2024/02/20 08:23:34;;;;;;;42.22;6.47;;;7.20;99.90;;;;;;5049219;28;20554;-62
2024/02/20 08:26:00;;;;;;;46.60;7.97;;;7.30;99.90;;;;;;5051887;28;20032;-63
2024/02/20 08:28:26;;;;;;;38.95;6.95;;;7.30;99.90;;;;;;5047356;28;20059;-67
2024/02/20 08:30:52;;;;;;;33.58;6.72;;;7.30;99.90;;;;;;5052858;28;20033;-66
2024/02/20 08:33:17;;;;;;;42.13;7.18;;;7.30;99.90;;;;;;5052932;28;20118;-63
2024/02/20 08:35:43;;;;;;;43.50;7.80;;;7.30;99.90;;;;;;5052991;28;20044;-63
2024/02/20 08:38:09;;;;;;;40.38;6.65;;;7.40;99.90;;;;;;5052088;28;20048;-64
2024/02/20 08:40:35;;;;;;;43.03;7.45;;;7.40;99.90;;;;;;5052329;28;20032;-64
2024/02/20 08:43:00;;;;;;;42.38;7.85;;;7.40;99.90;;;;;;5052931;28;20119;-66
2024/02/20 08:45:26;;;;;;;53.63;7.90;;;7.50;99.90;;;;;;5052384;28;20041;-62
2024/02/20 08:47:54;;;;;;;48.95;8.18;;;7.50;99.90;;;;;;5052584;28;20071;-63
2024/02/20 08:50:23;;;;;;;40.47;8.23;;;7.50;99.90;;;;;;5052922;28;20124;-63
2024/02/20 08:52:49;;;;;;;38.20;8.00;;;7.50;99.90;;;;;;5050049;28;20044;-67
2024/02/20 08:55:14;;;;;;;48.30;8.02;;;7.60;99.90;;;;;;5052779;28;20528;-66
2024/02/20 08:57:40;;;;;;;44.25;8.68;;;7.60;99.90;;;;;;5052265;28;20047;-63
2024/02/20 09:00:11;;;;;;;46.00;8.75;;;7.60;99.90;;;;;;5049873;28;20087;-63
2024/02/20 09:02:41;;;;;;;44.92;8.55;;;7.70;99.90;;;;;;5052258;28;20041;-68
2024/02/20 09:05:10;;;;;;;46.95;8.15;;;7.70;99.90;;;;;;5052613;28;20044;-62
2024/02/20 09:07:36;;;;;;;38.13;8.48;;;7.70;99.90;;;;;;5051925;28;20051;-63
2024/02/20 09:10:03;;;;;;;43.75;8.35;;;7.80;99.90;;;;;;5052444;28;20091;-63
2024/02/20 09:12:29;;;;;;;45.67;8.32;;;7.80;99.90;;;;;;5052660;28;20419;-62
2024/02/20 09:14:56;;;;;;;43.10;8.35;;;7.80;99.90;;;;;;5047825;28;20072;-62
2024/02/20 09:17:21;;;;;;;42.45;9.13;;;7.80;99.90;;;;;;5046846;28;20587;-69
2024/02/20 09:19:47;;;;;;;38.67;7.55;;;7.90;99.90;;;;;;5062294;28;20113;-62
2024/02/20 09:22:14;;;;;;;35.17;7.90;;;7.90;99.90;;;;;;5052408;28;20040;-62
2024/02/20 09:24:40;;;;;;;35.40;7.45;;;7.90;99.90;;;;;;5051920;28;20095;-65
2024/02/20 09:27:06;;;;;;;38.72;8.02;;;7.90;99.90;;;;;;5051764;28;20045;-65
2024/02/20 09:29:31;;;;;;;43.97;8.73;;;7.90;99.90;;;;;;5052243;28;20084;-62
2024/02/20 09:32:02;;;;;;;43.17;8.25;;;8.00;99.90;;;;;;5047033;28;20041;-62
2024/02/20 09:34:28;;;;;;;38.90;8.30;;;7.90;99.90;;;;;;5044709;28;20099;-66
2024/02/20 09:36:54;;;;;;;39.95;7.63;;;8.00;99.90;;;;;;5051327;28;20037;-62
2024/02/20 09:39:23;;;;;;;46.63;8.23;;;8.00;99.90;;;;;;5050588;28;20041;-63
2024/02/20 09:41:53;;;;;;;38.65;7.97;;;8.00;99.90;;;;;;5051880;28;20065;-62
2024/02/20 09:44:19;;;;;;;37.60;8.13;;;8.00;99.90;;;;;;5051825;28;20052;-67
2024/02/20 09:46:53;;;;;;;40.30;7.72;;;8.00;99.90;;;;;;5051402;28;20119;-63
2024/02/20 09:49:22;;;;;;;44.75;9.45;;;8.10;99.90;;;;;;5044217;28;20045;-68
2024/02/20 09:51:49;;;;;;;47.10;8.20;;;8.10;99.90;;;;;;5051320;28;20037;-62
2024/02/20 09:54:16;;;;;;;39.97;8.25;;;8.10;99.90;;;;;;5051778;28;20115;-66
2024/02/20 09:56:43;;;;;;;51.25;8.55;;;8.10;99.90;;;;;;5051343;28;20045;-66
2024/02/20 09:59:10;;;;;;;31.15;7.03;;;8.10;99.90;;;;;;5051326;28;20037;-70
2024/02/20 10:01:37;;;;;;;35.72;7.78;;;8.20;99.90;;;;;;5050153;28;20480;-62
2024/02/20 10:04:04;;;;;;;35.85;7.82;;;8.20;99.90;;;;;;5048896;28;20041;-63
2024/02/20 10:06:30;;;;;;;43.72;8.43;;;8.20;99.90;;;;;;5051409;28;20041;-63
2024/02/20 10:08:57;;;;;;;37.33;8.52;;;8.20;99.90;;;;;;5050946;28;20045;-62
2024/02/20 10:11:23;;;;;;;36.60;7.63;;;8.30;99.90;;;;;;5051411;28;20040;-62
2024/02/20 10:13:52;;;;;;;40.60;8.30;;;8.30;99.90;;;;;;5051033;28;20385;-62
2024/02/20 10:16:18;;;;;;;34.38;9.23;;;8.30;99.90;;;;;;5062358;28;20063;-63
2024/02/20 10:18:55;;;;;;;36.95;8.07;;;8.40;99.90;;;;;;5050412;28;20082;-63
2024/02/20 10:21:20;;;;;;;34.72;7.70;;;8.40;99.90;;;;;;5051241;28;20039;-63
2024/02/20 10:23:46;;;;;;;34.67;8.63;;;8.40;99.90;;;;;;5051206;28;20463;-62
2024/02/20 10:26:19;;;;;;;44.67;8.35;;;8.40;99.90;;;;;;5050811;28;20044;-65
2024/02/20 10:28:45;;;;;;;32.20;7.40;;;8.50;99.90;;;;;;5050442;28;20048;-62
2024/02/20 10:31:11;;;;;;;42.33;8.15;;;8.50;99.90;;;;;;5050728;28;20037;-65
2024/02/20 10:33:37;;;;;;;34.20;8.30;;;8.50;99.90;;;;;;5048559;28;20120;-62
2024/02/20 10:36:04;;;;;;;44.63;9.00;;;8.60;99.90;;;;;;5043695;28;20048;-62
2024/02/20 10:38:30;;;;;;;40.80;7.88;;;8.60;99.90;;;;;;5050502;28;20037;-66
2024/02/20 10:40:59;;;;;;;39.20;8.80;;;8.70;99.90;;;;;;5050769;28;20426;-66
2024/02/20 10:43:27;;;;;;;38.13;8.70;;;8.70;99.90;;;;;;5047596;28;20435;-62
2024/02/20 10:45:53;;;;;;;37.72;8.68;;;8.70;99.90;;;;;;5050505;28;20442;-62
2024/02/20 10:48:27;;;;;;;39.92;9.27;;;8.80;99.90;;;;;;5049763;28;20044;-66
2024/02/20 10:50:54;;;;;;;41.20;9.07;;;8.80;99.90;;;;;;5049429;28;20048;-62
2024/02/20 10:53:20;;;;;;;34.30;8.15;;;8.90;99.90;;;;;;5050529;28;20064;-64
2024/02/20 10:55:50;;;;;;;36.70;8.20;;;8.90;99.90;;;;;;5047701;28;20106;-69
2024/02/20 10:58:17;;;;;;;36.22;8.68;;;8.90;99.90;;;;;;5045499;28;20041;-70
2024/02/20 11:00:46;;;;;;;36.75;8.05;;;9.00;99.90;;;;;;5050268;28;20508;-69
2024/02/20 11:03:13;;;;;;;46.95;8.63;;;9.00;99.90;;;;;;5050521;28;20404;-62
2024/02/20 11:05:39;;;;;;;38.78;8.35;;;9.00;99.90;;;;;;5049245;28;20488;-63
2024/02/20 11:08:08;;;;;;;37.22;8.68;;;9.00;99.90;;;;;;5049871;28;20086;-64
2024/02/20 11:10:35;;;;;;;34.17;8.88;;;9.00;99.90;;;;;;5042753;28;20037;-62
2024/02/20 11:13:11;;;;;;;34.80;9.13;;;9.00;99.90;;;;;;5044187;28;20049;-70
2024/02/20 11:15:37;;;;;;;39.60;7.75;;;9.10;99.90;;;;;;5050255;28;20518;-65
2024/02/20 11:18:14;;;;;;;34.60;8.05;;;9.10;99.90;;;;;;5049779;28;20045;-67
2024/02/20 11:20:40;;;;;;;37.67;8.45;;;9.10;99.90;;;;;;5049161;28;20463;-62
2024/02/20 11:23:09;;;;;;;41.22;8.15;;;9.10;99.90;;;;;;5050214;28;20045;-62
2024/02/20 11:25:37;;;;;;;41.53;8.82;;;9.10;99.90;;;;;;5047203;28;20041;-62
2024/02/20 11:28:13;;;;;;;47.75;10.00;;;9.10;99.90;;;;;;5049979;28;20040;-62
2024/02/20 11:30:39;;;;;;;33.40;7.90;;;9.10;99.90;;;;;;5049143;28;20063;-62
2024/02/20 11:33:16;;;;;;;35.95;8.45;;;9.10;99.90;;;;;;5050135;28;20041;-71
2024/02/20 11:35:43;;;;;;;36.00;8.73;;;9.10;99.90;;;;;;5052532;28;20108;-68
2024/02/20 11:38:11;;;;;;;40.97;8.43;;;9.10;99.90;;;;;;5051426;28;20052;-63
2024/02/20 11:40:37;;;;;;;26.30;8.10;;;9.10;99.90;;;;;;5057219;28;20044;-62
2024/02/20 11:43:04;;;;;;;38.58;7.95;;;9.20;99.90;;;;;;5043864;28;20041;-62
2024/02/20 11:45:31;;;;;;;36.70;8.95;;;9.20;99.90;;;;;;5049735;28;20033;-64
2024/02/20 11:48:11;;;;;;;31.48;8.07;;;9.20;99.90;;;;;;5043706;28;20048;-62
2024/02/20 11:50:39;;;;;;;29.60;7.53;;;9.20;99.90;;;;;;5050040;28;20044;-63
2024/02/20 11:53:13;;;;;;;32.72;8.23;;;9.20;99.90;;;;;;5050215;28;20120;-62
2024/02/20 11:55:51;;;;;;;32.10;8.07;;;9.20;99.90;;;;;;5044350;28;20114;-63
2024/02/20 11:58:19;;;;;;;30.65;7.50;;;9.30;99.90;;;;;;5050788;28;20052;-62
2024/02/20 12:00:46;;;;;;;34.55;8.18;;;9.30;99.90;;;;;;5053354;28;20245;-62
2024/02/20 12:03:12;;;;;;;31.45;8.13;;;9.30;99.90;;;;;;5053619;28;20124;-62
2024/02/20 12:05:42;;;;;;;35.10;7.10;;;9.30;99.90;;;;;;5053553;28;20108;-62
2024/02/20 12:08:13;;;;;;;34.45;6.70;;;9.30;99.90;;;;;;5053215;28;20091;-67
2024/02/20 12:10:39;;;;;;;29.65;7.90;;;9.30;99.90;;;;;;5053478;28;20045;-64
2024/02/20 12:13:16;;;;;;;29.55;7.78;;;9.40;99.90;;;;;;5053215;28;20036;-67
2024/02/20 12:15:49;;;;;;;26.30;6.22;;;9.40;99.90;;;;;;5054601;28;20037;-62
2024/02/20 12:18:24;;;;;;;35.22;7.47;;;9.40;99.90;;;;;;5052950;28;20048;-67
2024/02/20 12:20:51;;;;;;;33.28;7.35;;;9.50;99.90;;;;;;5053265;28;20507;-62
2024/02/20 12:23:21;;;;;;;35.83;7.53;;;9.40;99.90;;;;;;5053442;28;20041;-68
2024/02/20 12:25:47;;;;;;;33.40;7.03;;;9.50;99.90;;;;;;5053089;28;20138;-67
2024/02/20 12:28:13;;;;;;;38.13;7.10;;;9.60;99.90;;;;;;5050330;28;20080;-62
2024/02/20 12:30:41;;;;;;;31.33;6.70;;;9.60;99.90;;;;;;5052960;28;20512;-66
2024/02/20 12:33:07;;;;;;;31.55;6.35;;;9.70;99.90;;;;;;5053259;28;20032;-63
2024/02/20 12:35:33;;;;;;;33.42;7.05;;;9.70;99.90;;;;;;5053099;28;20068;-62
2024/02/20 12:37:58;;;;;;;27.13;6.50;;;9.80;99.90;;;;;;5052444;28;20041;-62
2024/02/20 12:40:25;;;;;;;29.15;6.57;;;9.80;99.90;;;;;;5052758;28;20032;-65
2024/02/20 12:42:51;;;;;;;36.25;7.47;;;9.90;99.90;;;;;;5052959;28;20041;-62
2024/02/20 12:45:17;;;;;;;37.25;7.25;;;9.90;99.90;;;;;;5049147;28;20381;-62